createdAt,value
2022-10-01T00:01:42.734Z,7.5
2022-10-01T00:16:13.652Z,7.7
2022-10-01T00:30:45.136Z,7.8
2022-10-01T00:45:16.689Z,8
2022-10-01T00:59:48.272Z,8
2022-10-01T01:14:18.838Z,8.1
2022-10-01T01:28:50.553Z,8.2
2022-10-01T01:43:21.955Z,8.9
2022-10-01T01:57:52.823Z,9.9
2022-10-01T02:12:23.402Z,11
2022-10-01T02:26:54.301Z,11
2022-10-01T02:41:25.201Z,10.9
2022-10-01T02:56:02.482Z,11
2022-10-01T03:10:35.953Z,10.9
2022-10-01T03:25:04.566Z,10.9
2022-10-01T03:39:36.208Z,11.2
2022-10-01T03:54:08.025Z,11.1
2022-10-01T04:08:45.334Z,11.1
2022-10-01T04:23:16.190Z,11
2022-10-01T04:37:46.507Z,11
2022-10-01T04:52:18.509Z,11.1
2022-10-01T05:06:49.990Z,11.1
2022-10-01T05:21:21.958Z,11.2
2022-10-01T05:35:59.024Z,11.2
2022-10-01T05:50:27.424Z,11.4
2022-10-01T06:04:57.917Z,11.4
2022-10-01T06:19:29.473Z,11.4
2022-10-01T06:34:01.383Z,11.4
2022-10-01T06:48:31.855Z,11.3
2022-10-01T07:03:04.222Z,11.3
2022-10-01T07:17:36.093Z,11.5
2022-10-01T07:32:07.947Z,11.6
2022-10-01T07:46:39.132Z,11.7
2022-10-01T08:01:12.759Z,11.7
2022-10-01T08:15:44.483Z,11.9
2022-10-01T08:30:24.840Z,12.1
2022-10-01T08:44:53.811Z,12.2
2022-10-01T08:59:27.917Z,12.5
2022-10-01T09:13:57.750Z,12.4
2022-10-01T09:28:30.016Z,12.4
2022-10-01T09:43:02.628Z,12.8
2022-10-01T09:57:38.598Z,12.9
2022-10-01T10:12:10.429Z,13.2
2022-10-01T10:26:42.807Z,13
2022-10-01T10:41:13.996Z,13.5
2022-10-01T10:55:46.641Z,14
2022-10-01T11:10:21.081Z,14.7
2022-10-01T11:24:53.398Z,14.9
2022-10-01T11:39:26.464Z,15.4
2022-10-01T11:53:59.800Z,15.9
2022-10-01T12:08:33.202Z,16.1
2022-10-01T12:23:05.612Z,15.4
2022-10-01T12:37:35.885Z,16.2
2022-10-01T12:52:07.008Z,14.5
2022-10-01T13:06:40.017Z,14.9
2022-10-01T13:21:12.604Z,14.4
2022-10-01T13:35:43.905Z,14.1
2022-10-01T13:50:15.843Z,13.4
2022-10-01T14:04:46.539Z,13.5
2022-10-01T14:19:19.509Z,13.1
2022-10-01T14:33:51.134Z,13.3
2022-10-01T14:48:23.474Z,13.2
2022-10-01T15:02:53.665Z,10.8
2022-10-01T15:17:22.779Z,11.7
2022-10-01T15:31:55.454Z,12.4
2022-10-01T15:46:27.098Z,13.3
2022-10-01T16:00:57.840Z,13.8
2022-10-01T16:15:29.642Z,14.4
2022-10-01T16:30:06.533Z,14.5
2022-10-01T16:44:36.554Z,14.4
2022-10-01T16:59:06.201Z,14.3
2022-10-01T17:13:35.191Z,14.2
2022-10-01T17:28:06.388Z,14
2022-10-01T17:42:37.739Z,13.7
2022-10-01T17:57:08.832Z,13.5
2022-10-01T18:11:41.971Z,13.4
2022-10-01T18:26:13.304Z,13.6
2022-10-01T18:40:45.376Z,13.5
2022-10-01T18:55:21.995Z,13.4
2022-10-01T19:09:49.032Z,13.2
2022-10-01T19:24:21.044Z,13.2
2022-10-01T19:38:51.682Z,13.1
2022-10-01T19:53:23.471Z,12.9
2022-10-01T20:07:55.381Z,12.8
2022-10-01T20:22:27.541Z,12.9
2022-10-01T20:36:59.408Z,12.7
2022-10-01T20:51:29.568Z,12.5
2022-10-01T21:06:01.098Z,12.3
2022-10-01T21:20:33.384Z,12.2
2022-10-01T21:35:05.444Z,11.8
2022-10-01T21:49:36.616Z,11.8
2022-10-01T22:04:05.952Z,11.1
2022-10-01T22:18:37.660Z,11
2022-10-01T22:33:07.897Z,10.5
2022-10-01T22:47:39.488Z,10.6
2022-10-01T23:02:11.728Z,11.1
2022-10-01T23:16:44.932Z,11.4
2022-10-01T23:31:15.171Z,11.7
2022-10-01T23:45:47.434Z,11.9
